sensor_id;sensor_type;location;lat;lon;timestamp;P1;durP1;ratioP1;P2;durP2;ratioP2
9254;SDS011;4663;49.120;9.730;2023-05-10T00:01:46;47.60;;;45.25;;
9254;SDS011;4663;49.120;9.730;2023-05-10T00:04:12;45.50;;;43.33;;
9254;SDS011;4663;49.120;9.730;2023-05-10T00:06:37;46.20;;;43.72;;
9254;SDS011;4663;49.120;9.730;2023-05-10T00:09:02;44.40;;;42.30;;
9254;SDS011;4663;49.120;9.730;2023-05-10T00:11:28;43.33;;;41.30;;
9254;SDS011;4663;49.120;9.730;2023-05-10T00:13:54;46.67;;;44.42;;
9254;SDS011;4663;49.120;9.730;2023-05-10T00:16:19;42.15;;;40.05;;
9254;SDS011;4663;49.120;9.730;2023-05-10T00:18:44;43.78;;;41.72;;
9254;SDS011;4663;49.120;9.730;2023-05-10T00:21:10;44.72;;;42.47;;
9254;SDS011;4663;49.120;9.730;2023-05-10T00:23:35;43.10;;;41.03;;
9254;SDS011;4663;49.120;9.730;2023-05-10T00:26:00;46.53;;;44.30;;
9254;SDS011;4663;49.120;9.730;2023-05-10T00:28:27;46.58;;;44.38;;
9254;SDS011;4663;49.120;9.730;2023-05-10T00:30:53;46.88;;;44.53;;
9254;SDS011;4663;49.120;9.730;2023-05-10T00:33:18;48.78;;;46.45;;
9254;SDS011;4663;49.120;9.730;2023-05-10T00:35:44;47.28;;;44.83;;
9254;SDS011;4663;49.120;9.730;2023-05-10T00:38:09;49.08;;;46.65;;
9254;SDS011;4663;49.120;9.730;2023-05-10T00:40:35;47.03;;;44.70;;
9254;SDS011;4663;49.120;9.730;2023-05-10T00:43:01;44.00;;;41.83;;
9254;SDS011;4663;49.120;9.730;2023-05-10T00:45:27;45.70;;;42.97;;
9254;SDS011;4663;49.120;9.730;2023-05-10T00:47:54;41.67;;;39.67;;
9254;SDS011;4663;49.120;9.730;2023-05-10T00:50:21;42.33;;;39.60;;
9254;SDS011;4663;49.120;9.730;2023-05-10T00:52:48;45.20;;;42.00;;
9254;SDS011;4663;49.120;9.730;2023-05-10T00:55:14;43.97;;;41.85;;
9254;SDS011;4663;49.120;9.730;2023-05-10T00:57:39;41.55;;;39.40;;
9254;SDS011;4663;49.120;9.730;2023-05-10T01:00:05;44.47;;;42.13;;
9254;SDS011;4663;49.120;9.730;2023-05-10T01:02:31;40.65;;;38.75;;
9254;SDS011;4663;49.120;9.730;2023-05-10T01:04:58;41.42;;;39.45;;
9254;SDS011;4663;49.120;9.730;2023-05-10T01:07:24;41.35;;;39.22;;
9254;SDS011;4663;49.120;9.730;2023-05-10T01:09:49;37.70;;;35.75;;
9254;SDS011;4663;49.120;9.730;2023-05-10T01:12:14;38.83;;;36.67;;
9254;SDS011;4663;49.120;9.730;2023-05-10T01:14:40;43.90;;;41.85;;
9254;SDS011;4663;49.120;9.730;2023-05-10T01:17:06;41.08;;;39.17;;
9254;SDS011;4663;49.120;9.730;2023-05-10T01:19:34;36.05;;;34.05;;
9254;SDS011;4663;49.120;9.730;2023-05-10T01:33:09;35.88;;;34.03;;
9254;SDS011;4663;49.120;9.730;2023-05-10T01:35:42;37.17;;;35.45;;
9254;SDS011;4663;49.120;9.730;2023-05-10T01:43:36;38.45;;;36.28;;
9254;SDS011;4663;49.120;9.730;2023-05-10T01:46:09;41.28;;;39.35;;
9254;SDS011;4663;49.120;9.730;2023-05-10T01:48:47;41.88;;;39.67;;
9254;SDS011;4663;49.120;9.730;2023-05-10T01:51:16;42.20;;;39.83;;
9254;SDS011;4663;49.120;9.730;2023-05-10T01:53:46;37.35;;;35.65;;
9254;SDS011;4663;49.120;9.730;2023-05-10T01:56:13;38.15;;;36.35;;
9254;SDS011;4663;49.120;9.730;2023-05-10T01:58:40;39.22;;;37.38;;
9254;SDS011;4663;49.120;9.730;2023-05-10T02:01:10;42.88;;;40.85;;
9254;SDS011;4663;49.120;9.730;2023-05-10T02:03:37;39.53;;;37.70;;
9254;SDS011;4663;49.120;9.730;2023-05-10T02:06:05;40.55;;;38.63;;
9254;SDS011;4663;49.120;9.730;2023-05-10T02:08:32;46.42;;;44.17;;
9254;SDS011;4663;49.120;9.730;2023-05-10T02:11:01;43.75;;;41.60;;
9254;SDS011;4663;49.120;9.730;2023-05-10T02:13:28;46.65;;;44.38;;
9254;SDS011;4663;49.120;9.730;2023-05-10T02:15:56;42.45;;;40.25;;
9254;SDS011;4663;49.120;9.730;2023-05-10T02:18:22;43.83;;;41.53;;
9254;SDS011;4663;49.120;9.730;2023-05-10T02:20:49;42.83;;;40.83;;
9254;SDS011;4663;49.120;9.730;2023-05-10T02:23:16;47.88;;;45.55;;
9254;SDS011;4663;49.120;9.730;2023-05-10T02:25:43;50.00;;;47.40;;
9254;SDS011;4663;49.120;9.730;2023-05-10T02:28:09;51.67;;;49.22;;
9254;SDS011;4663;49.120;9.730;2023-05-10T02:30:36;48.40;;;45.95;;
9254;SDS011;4663;49.120;9.730;2023-05-10T02:33:02;49.58;;;47.10;;
9254;SDS011;4663;49.120;9.730;2023-05-10T02:35:29;52.85;;;50.42;;
9254;SDS011;4663;49.120;9.730;2023-05-10T02:37:56;52.95;;;50.42;;
9254;SDS011;4663;49.120;9.730;2023-05-10T02:40:23;55.47;;;52.92;;
9254;SDS011;4663;49.120;9.730;2023-05-10T02:42:51;53.45;;;50.97;;
9254;SDS011;4663;49.120;9.730;2023-05-10T02:45:20;56.78;;;54.13;;
9254;SDS011;4663;49.120;9.730;2023-05-10T02:47:47;58.17;;;55.38;;
9254;SDS011;4663;49.120;9.730;2023-05-10T02:50:13;56.30;;;53.45;;
9254;SDS011;4663;49.120;9.730;2023-05-10T02:52:40;53.22;;;49.85;;
9254;SDS011;4663;49.120;9.730;2023-05-10T02:55:09;53.40;;;50.95;;
9254;SDS011;4663;49.120;9.730;2023-05-10T02:57:38;56.83;;;54.17;;
9254;SDS011;4663;49.120;9.730;2023-05-10T03:00:08;51.20;;;48.83;;
9254;SDS011;4663;49.120;9.730;2023-05-10T03:02:33;52.42;;;49.97;;
9254;SDS011;4663;49.120;9.730;2023-05-10T03:04:59;50.58;;;47.63;;
9254;SDS011;4663;49.120;9.730;2023-05-10T03:07:24;50.75;;;48.33;;
9254;SDS011;4663;49.120;9.730;2023-05-10T03:09:50;50.85;;;48.30;;
9254;SDS011;4663;49.120;9.730;2023-05-10T03:12:33;54.63;;;52.08;;
9254;SDS011;4663;49.120;9.730;2023-05-10T03:21:07;40.22;;;38.22;;
9254;SDS011;4663;49.120;9.730;2023-05-10T03:23:41;47.78;;;45.42;;
9254;SDS011;4663;49.120;9.730;2023-05-10T03:26:09;47.00;;;44.58;;
9254;SDS011;4663;49.120;9.730;2023-05-10T03:28:39;47.72;;;45.38;;
9254;SDS011;4663;49.120;9.730;2023-05-10T03:31:06;48.72;;;46.15;;
9254;SDS011;4663;49.120;9.730;2023-05-10T03:33:32;45.63;;;43.17;;
9254;SDS011;4663;49.120;9.730;2023-05-10T03:35:58;46.05;;;43.83;;
9254;SDS011;4663;49.120;9.730;2023-05-10T03:38:23;43.45;;;41.08;;
9254;SDS011;4663;49.120;9.730;2023-05-10T03:40:48;47.65;;;45.33;;
9254;SDS011;4663;49.120;9.730;2023-05-10T03:43:14;51.00;;;48.25;;
9254;SDS011;4663;49.120;9.730;2023-05-10T03:45:39;50.13;;;47.67;;
9254;SDS011;4663;49.120;9.730;2023-05-10T03:48:04;74.45;;;70.97;;
9254;SDS011;4663;49.120;9.730;2023-05-10T03:50:30;48.50;;;46.13;;
9254;SDS011;4663;49.120;9.730;2023-05-10T03:52:55;47.90;;;45.67;;
9254;SDS011;4663;49.120;9.730;2023-05-10T03:55:22;45.60;;;43.47;;
9254;SDS011;4663;49.120;9.730;2023-05-10T03:57:47;45.13;;;42.58;;
9254;SDS011;4663;49.120;9.730;2023-05-10T04:00:14;45.90;;;43.65;;
9254;SDS011;4663;49.120;9.730;2023-05-10T04:02:40;43.05;;;40.97;;
9254;SDS011;4663;49.120;9.730;2023-05-10T04:05:06;39.47;;;37.53;;
9254;SDS011;4663;49.120;9.730;2023-05-10T04:07:31;40.53;;;38.30;;
9254;SDS011;4663;49.120;9.730;2023-05-10T04:09:56;40.50;;;38.55;;
9254;SDS011;4663;49.120;9.730;2023-05-10T04:12:22;40.28;;;38.35;;
9254;SDS011;4663;49.120;9.730;2023-05-10T04:14:47;42.75;;;40.38;;
9254;SDS011;4663;49.120;9.730;2023-05-10T04:17:13;44.13;;;41.92;;
9254;SDS011;4663;49.120;9.730;2023-05-10T04:19:38;46.88;;;44.42;;
9254;SDS011;4663;49.120;9.730;2023-05-10T04:22:03;40.85;;;38.78;;
9254;SDS011;4663;49.120;9.730;2023-05-10T04:24:29;42.22;;;40.05;;
9254;SDS011;4663;49.120;9.730;2023-05-10T04:26:54;42.30;;;39.92;;
9254;SDS011;4663;49.120;9.730;2023-05-10T04:29:20;45.80;;;43.60;;
9254;SDS011;4663;49.120;9.730;2023-05-10T04:31:45;52.38;;;49.63;;
9254;SDS011;4663;49.120;9.730;2023-05-10T04:34:11;50.58;;;48.00;;
9254;SDS011;4663;49.120;9.730;2023-05-10T04:36:36;46.97;;;44.70;;
9254;SDS011;4663;49.120;9.730;2023-05-10T04:39:02;50.33;;;47.45;;
9254;SDS011;4663;49.120;9.730;2023-05-10T04:41:28;54.15;;;51.03;;
9254;SDS011;4663;49.120;9.730;2023-05-10T04:43:54;54.55;;;51.85;;
9254;SDS011;4663;49.120;9.730;2023-05-10T04:46:19;56.10;;;53.17;;
9254;SDS011;4663;49.120;9.730;2023-05-10T04:48:44;53.97;;;51.33;;
9254;SDS011;4663;49.120;9.730;2023-05-10T04:51:10;51.53;;;48.95;;
9254;SDS011;4663;49.120;9.730;2023-05-10T04:53:35;57.45;;;54.65;;
9254;SDS011;4663;49.120;9.730;2023-05-10T04:56:01;59.83;;;56.92;;
9254;SDS011;4663;49.120;9.730;2023-05-10T04:58:26;58.80;;;56.05;;
9254;SDS011;4663;49.120;9.730;2023-05-10T05:00:51;56.72;;;53.95;;
9254;SDS011;4663;49.120;9.730;2023-05-10T05:03:17;84.40;;;80.40;;
9254;SDS011;4663;49.120;9.730;2023-05-10T05:05:43;53.65;;;51.10;;
9254;SDS011;4663;49.120;9.730;2023-05-10T05:08:09;51.80;;;49.30;;
9254;SDS011;4663;49.120;9.730;2023-05-10T05:10:34;50.08;;;47.63;;
9254;SDS011;4663;49.120;9.730;2023-05-10T05:13:00;49.30;;;46.97;;
9254;SDS011;4663;49.120;9.730;2023-05-10T05:15:25;50.38;;;48.03;;
9254;SDS011;4663;49.120;9.730;2023-05-10T05:17:50;50.50;;;47.95;;
9254;SDS011;4663;49.120;9.730;2023-05-10T05:20:16;113.25;;;107.88;;
9254;SDS011;4663;49.120;9.730;2023-05-10T05:22:43;44.15;;;42.05;;
9254;SDS011;4663;49.120;9.730;2023-05-10T05:25:09;40.58;;;38.58;;
9254;SDS011;4663;49.120;9.730;2023-05-10T05:27:34;41.58;;;39.30;;
9254;SDS011;4663;49.120;9.730;2023-05-10T05:30:00;34.53;;;32.83;;
9254;SDS011;4663;49.120;9.730;2023-05-10T05:32:25;36.10;;;34.28;;
9254;SDS011;4663;49.120;9.730;2023-05-10T05:34:50;34.97;;;33.28;;
9254;SDS011;4663;49.120;9.730;2023-05-10T05:37:19;33.42;;;31.83;;
9254;SDS011;4663;49.120;9.730;2023-05-10T05:39:46;34.85;;;33.25;;
9254;SDS011;4663;49.120;9.730;2023-05-10T05:42:12;36.33;;;34.53;;
9254;SDS011;4663;49.120;9.730;2023-05-10T05:44:38;35.75;;;33.85;;
9254;SDS011;4663;49.120;9.730;2023-05-10T05:47:04;32.92;;;31.30;;
9254;SDS011;4663;49.120;9.730;2023-05-10T05:49:30;32.10;;;30.45;;
9254;SDS011;4663;49.120;9.730;2023-05-10T05:52:00;32.95;;;31.23;;
9254;SDS011;4663;49.120;9.730;2023-05-10T05:54:26;30.70;;;29.20;;
9254;SDS011;4663;49.120;9.730;2023-05-10T05:56:55;33.58;;;31.88;;
9254;SDS011;4663;49.120;9.730;2023-05-10T05:59:22;36.72;;;34.92;;
9254;SDS011;4663;49.120;9.730;2023-05-10T06:01:47;38.45;;;36.47;;
9254;SDS011;4663;49.120;9.730;2023-05-10T06:04:13;37.97;;;36.10;;
9254;SDS011;4663;49.120;9.730;2023-05-10T06:06:39;37.58;;;35.70;;
9254;SDS011;4663;49.120;9.730;2023-05-10T06:09:05;40.45;;;38.35;;
9254;SDS011;4663;49.120;9.730;2023-05-10T06:11:30;35.20;;;33.53;;
9254;SDS011;4663;49.120;9.730;2023-05-10T06:13:57;32.63;;;31.13;;
9254;SDS011;4663;49.120;9.730;2023-05-10T06:16:23;28.63;;;27.27;;
9254;SDS011;4663;49.120;9.730;2023-05-10T06:18:48;24.15;;;22.98;;
9254;SDS011;4663;49.120;9.730;2023-05-10T06:21:13;23.30;;;21.83;;
9254;SDS011;4663;49.120;9.730;2023-05-10T06:23:39;23.88;;;22.65;;
9254;SDS011;4663;49.120;9.730;2023-05-10T06:26:05;27.02;;;25.65;;
9254;SDS011;4663;49.120;9.730;2023-05-10T06:28:30;24.88;;;23.52;;
9254;SDS011;4663;49.120;9.730;2023-05-10T06:30:57;25.23;;;23.95;;
9254;SDS011;4663;49.120;9.730;2023-05-10T06:33:22;23.35;;;22.23;;
9254;SDS011;4663;49.120;9.730;2023-05-10T06:35:48;25.35;;;23.98;;
9254;SDS011;4663;49.120;9.730;2023-05-10T06:38:13;21.70;;;20.55;;
9254;SDS011;4663;49.120;9.730;2023-05-10T06:40:42;23.00;;;21.88;;
9254;SDS011;4663;49.120;9.730;2023-05-10T06:43:07;23.05;;;21.77;;
9254;SDS011;4663;49.120;9.730;2023-05-10T06:45:33;26.10;;;24.58;;
9254;SDS011;4663;49.120;9.730;2023-05-10T06:48:00;26.55;;;25.23;;
9254;SDS011;4663;49.120;9.730;2023-05-10T06:50:25;29.35;;;27.88;;
9254;SDS011;4663;49.120;9.730;2023-05-10T06:52:51;33.95;;;31.92;;
9254;SDS011;4663;49.120;9.730;2023-05-10T06:55:16;35.45;;;33.72;;
9254;SDS011;4663;49.120;9.730;2023-05-10T06:57:42;40.78;;;38.78;;
9254;SDS011;4663;49.120;9.730;2023-05-10T07:00:07;41.15;;;39.05;;
9254;SDS011;4663;49.120;9.730;2023-05-10T07:02:34;41.67;;;39.72;;
9254;SDS011;4663;49.120;9.730;2023-05-10T07:05:00;40.15;;;37.88;;
9254;SDS011;4663;49.120;9.730;2023-05-10T07:07:25;36.67;;;34.83;;
9254;SDS011;4663;49.120;9.730;2023-05-10T07:09:51;37.53;;;35.75;;
9254;SDS011;4663;49.120;9.730;2023-05-10T07:12:16;37.15;;;34.75;;
9254;SDS011;4663;49.120;9.730;2023-05-10T07:14:42;36.63;;;34.92;;
9254;SDS011;4663;49.120;9.730;2023-05-10T07:17:07;38.28;;;35.97;;
9254;SDS011;4663;49.120;9.730;2023-05-10T07:19:33;34.63;;;32.90;;
9254;SDS011;4663;49.120;9.730;2023-05-10T07:21:58;36.13;;;34.25;;
9254;SDS011;4663;49.120;9.730;2023-05-10T07:24:24;40.05;;;38.15;;
9254;SDS011;4663;49.120;9.730;2023-05-10T07:26:50;37.95;;;35.85;;
9254;SDS011;4663;49.120;9.730;2023-05-10T07:29:15;35.55;;;33.53;;
9254;SDS011;4663;49.120;9.730;2023-05-10T07:31:41;34.25;;;32.58;;
9254;SDS011;4663;49.120;9.730;2023-05-10T07:34:07;35.25;;;33.33;;
9254;SDS011;4663;49.120;9.730;2023-05-10T07:36:33;33.60;;;31.95;;
9254;SDS011;4663;49.120;9.730;2023-05-10T07:38:59;29.73;;;28.25;;
9254;SDS011;4663;49.120;9.730;2023-05-10T07:41:24;26.20;;;24.98;;
9254;SDS011;4663;49.120;9.730;2023-05-10T07:43:50;25.23;;;23.88;;
9254;SDS011;4663;49.120;9.730;2023-05-10T07:46:15;27.00;;;25.35;;
9254;SDS011;4663;49.120;9.730;2023-05-10T07:48:40;25.80;;;24.27;;
9254;SDS011;4663;49.120;9.730;2023-05-10T07:51:06;23.58;;;22.05;;
9254;SDS011;4663;49.120;9.730;2023-05-10T07:53:34;22.10;;;21.05;;
9254;SDS011;4663;49.120;9.730;2023-05-10T07:56:19;21.77;;;20.67;;
9254;SDS011;4663;49.120;9.730;2023-05-10T07:58:52;21.95;;;20.75;;
9254;SDS011;4663;49.120;9.730;2023-05-10T08:01:19;19.77;;;18.75;;
9254;SDS011;4663;49.120;9.730;2023-05-10T08:03:44;20.52;;;19.52;;
9254;SDS011;4663;49.120;9.730;2023-05-10T08:06:10;21.17;;;20.23;;
9254;SDS011;4663;49.120;9.730;2023-05-10T08:08:35;21.90;;;20.90;;
9254;SDS011;4663;49.120;9.730;2023-05-10T08:11:00;21.17;;;19.92;;
9254;SDS011;4663;49.120;9.730;2023-05-10T08:13:26;21.40;;;20.38;;
9254;SDS011;4663;49.120;9.730;2023-05-10T08:15:51;21.83;;;20.52;;
9254;SDS011;4663;49.120;9.730;2023-05-10T08:18:18;24.92;;;23.50;;
9254;SDS011;4663;49.120;9.730;2023-05-10T08:20:44;26.05;;;24.48;;
9254;SDS011;4663;49.120;9.730;2023-05-10T08:23:09;23.00;;;21.85;;
9254;SDS011;4663;49.120;9.730;2023-05-10T08:25:34;26.15;;;24.63;;
9254;SDS011;4663;49.120;9.730;2023-05-10T08:28:00;23.35;;;22.20;;
9254;SDS011;4663;49.120;9.730;2023-05-10T08:30:25;22.20;;;21.15;;
9254;SDS011;4663;49.120;9.730;2023-05-10T08:32:50;19.55;;;18.65;;
9254;SDS011;4663;49.120;9.730;2023-05-10T08:35:16;21.83;;;20.83;;
9254;SDS011;4663;49.120;9.730;2023-05-10T08:37:41;20.52;;;19.45;;
9254;SDS011;4663;49.120;9.730;2023-05-10T08:40:07;21.42;;;20.42;;
9254;SDS011;4663;49.120;9.730;2023-05-10T08:42:36;20.88;;;19.88;;
9254;SDS011;4663;49.120;9.730;2023-05-10T08:45:05;22.25;;;21.05;;
9254;SDS011;4663;49.120;9.730;2023-05-10T08:47:32;21.83;;;20.52;;
9254;SDS011;4663;49.120;9.730;2023-05-10T08:50:00;22.38;;;21.35;;
9254;SDS011;4663;49.120;9.730;2023-05-10T08:52:27;22.80;;;21.70;;
9254;SDS011;4663;49.120;9.730;2023-05-10T08:54:55;26.73;;;25.35;;
9254;SDS011;4663;49.120;9.730;2023-05-10T08:57:21;28.30;;;26.80;;
9254;SDS011;4663;49.120;9.730;2023-05-10T08:59:47;24.77;;;23.60;;
9254;SDS011;4663;49.120;9.730;2023-05-10T09:02:12;25.10;;;23.90;;
9254;SDS011;4663;49.120;9.730;2023-05-10T09:04:39;32.28;;;30.63;;
9254;SDS011;4663;49.120;9.730;2023-05-10T09:07:04;30.48;;;28.98;;
9254;SDS011;4663;49.120;9.730;2023-05-10T09:09:31;41.30;;;39.00;;
9254;SDS011;4663;49.120;9.730;2023-05-10T09:11:57;48.13;;;45.88;;
9254;SDS011;4663;49.120;9.730;2023-05-10T09:14:23;53.05;;;50.63;;
9254;SDS011;4663;49.120;9.730;2023-05-10T09:16:49;49.30;;;46.75;;
9254;SDS011;4663;49.120;9.730;2023-05-10T09:19:15;44.95;;;42.75;;
9254;SDS011;4663;49.120;9.730;2023-05-10T09:21:41;43.47;;;41.45;;
9254;SDS011;4663;49.120;9.730;2023-05-10T09:24:07;42.88;;;40.85;;
9254;SDS011;4663;49.120;9.730;2023-05-10T09:26:33;44.83;;;42.67;;
9254;SDS011;4663;49.120;9.730;2023-05-10T09:29:00;43.72;;;41.63;;
9254;SDS011;4663;49.120;9.730;2023-05-10T09:31:49;43.97;;;41.88;;
9254;SDS011;4663;49.120;9.730;2023-05-10T09:34:17;44.70;;;42.53;;
9254;SDS011;4663;49.120;9.730;2023-05-10T09:36:50;43.90;;;41.65;;
9254;SDS011;4663;49.120;9.730;2023-05-10T09:39:19;38.45;;;36.50;;
9254;SDS011;4663;49.120;9.730;2023-05-10T09:41:45;36.90;;;35.13;;
9254;SDS011;4663;49.120;9.730;2023-05-10T09:44:10;33.15;;;31.55;;
9254;SDS011;4663;49.120;9.730;2023-05-10T09:46:36;40.08;;;38.00;;
9254;SDS011;4663;49.120;9.730;2023-05-10T09:49:02;41.22;;;39.33;;
9254;SDS011;4663;49.120;9.730;2023-05-10T09:51:27;43.38;;;41.25;;
9254;SDS011;4663;49.120;9.730;2023-05-10T09:56:38;49.53;;;47.17;;
9254;SDS011;4663;49.120;9.730;2023-05-10T09:59:06;44.25;;;42.15;;
9254;SDS011;4663;49.120;9.730;2023-05-10T10:01:32;71.03;;;67.63;;
9254;SDS011;4663;49.120;9.730;2023-05-10T10:03:59;45.75;;;43.65;;
9254;SDS011;4663;49.120;9.730;2023-05-10T10:06:34;46.75;;;44.40;;
9254;SDS011;4663;49.120;9.730;2023-05-10T10:09:01;46.08;;;43.42;;
9254;SDS011;4663;49.120;9.730;2023-05-10T10:11:27;46.90;;;44.67;;
9254;SDS011;4663;49.120;9.730;2023-05-10T10:13:53;43.00;;;40.88;;
9254;SDS011;4663;49.120;9.730;2023-05-10T10:16:19;33.58;;;32.00;;
9254;SDS011;4663;49.120;9.730;2023-05-10T10:18:45;34.70;;;33.08;;
9254;SDS011;4663;49.120;9.730;2023-05-10T10:21:13;24.27;;;23.02;;
9254;SDS011;4663;49.120;9.730;2023-05-10T10:23:39;25.23;;;23.85;;
9254;SDS011;4663;49.120;9.730;2023-05-10T10:26:05;21.98;;;20.98;;
9254;SDS011;4663;49.120;9.730;2023-05-10T10:34:45;27.90;;;26.60;;
9254;SDS011;4663;49.120;9.730;2023-05-10T10:37:05;22.33;;;21.27;;
9254;SDS011;4663;49.120;9.730;2023-05-10T10:39:31;29.70;;;28.23;;
9254;SDS011;4663;49.120;9.730;2023-05-10T10:41:58;36.15;;;34.45;;
9254;SDS011;4663;49.120;9.730;2023-05-10T10:47:06;54.60;;;52.03;;
9254;SDS011;4663;49.120;9.730;2023-05-10T10:52:26;53.13;;;50.40;;
9254;SDS011;4663;49.120;9.730;2023-05-10T10:54:57;48.10;;;45.72;;
9254;SDS011;4663;49.120;9.730;2023-05-10T11:02:44;38.20;;;36.33;;
9254;SDS011;4663;49.120;9.730;2023-05-10T11:07:57;39.15;;;36.97;;
9254;SDS011;4663;49.120;9.730;2023-05-10T11:10:24;40.40;;;38.42;;
9254;SDS011;4663;49.120;9.730;2023-05-10T11:13:11;34.75;;;33.08;;
9254;SDS011;4663;49.120;9.730;2023-05-10T11:15:40;34.15;;;32.25;;
9254;SDS011;4663;49.120;9.730;2023-05-10T11:18:19;28.83;;;27.17;;
9254;SDS011;4663;49.120;9.730;2023-05-10T11:21:18;28.40;;;26.65;;
9254;SDS011;4663;49.120;9.730;2023-05-10T11:26:07;22.52;;;21.48;;
9254;SDS011;4663;49.120;9.730;2023-05-10T11:28:34;24.33;;;23.10;;
9254;SDS011;4663;49.120;9.730;2023-05-10T11:31:05;26.55;;;25.05;;
9254;SDS011;4663;49.120;9.730;2023-05-10T11:33:31;26.10;;;24.85;;
9254;SDS011;4663;49.120;9.730;2023-05-10T11:36:17;27.75;;;26.20;;
9254;SDS011;4663;49.120;9.730;2023-05-10T11:38:45;28.40;;;27.10;;
9254;SDS011;4663;49.120;9.730;2023-05-10T11:41:11;26.05;;;24.85;;
9254;SDS011;4663;49.120;9.730;2023-05-10T11:43:40;31.73;;;29.75;;
9254;SDS011;4663;49.120;9.730;2023-05-10T11:46:11;28.75;;;27.10;;
9254;SDS011;4663;49.120;9.730;2023-05-10T11:48:38;27.60;;;26.33;;
9254;SDS011;4663;49.120;9.730;2023-05-10T11:51:04;26.58;;;25.38;;
9254;SDS011;4663;49.120;9.730;2023-05-10T11:53:31;28.23;;;26.77;;
9254;SDS011;4663;49.120;9.730;2023-05-10T11:56:07;25.65;;;24.40;;
9254;SDS011;4663;49.120;9.730;2023-05-10T11:58:34;25.75;;;24.48;;
9254;SDS011;4663;49.120;9.730;2023-05-10T12:01:01;26.77;;;25.58;;
9254;SDS011;4663;49.120;9.730;2023-05-10T12:03:28;29.27;;;27.95;;
9254;SDS011;4663;49.120;9.730;2023-05-10T12:05:54;29.13;;;27.52;;
9254;SDS011;4663;49.120;9.730;2023-05-10T12:08:21;30.63;;;28.83;;
9254;SDS011;4663;49.120;9.730;2023-05-10T12:10:48;28.20;;;26.88;;
9254;SDS011;4663;49.120;9.730;2023-05-10T12:13:14;25.92;;;24.33;;
9254;SDS011;4663;49.120;9.730;2023-05-10T12:15:40;25.35;;;23.98;;
9254;SDS011;4663;49.120;9.730;2023-05-10T12:18:10;23.98;;;22.63;;
9254;SDS011;4663;49.120;9.730;2023-05-10T12:20:36;21.75;;;20.67;;
9254;SDS011;4663;49.120;9.730;2023-05-10T12:23:02;23.58;;;22.45;;
9254;SDS011;4663;49.120;9.730;2023-05-10T12:25:32;20.67;;;19.63;;
9254;SDS011;4663;49.120;9.730;2023-05-10T12:27:59;22.08;;;20.20;;
9254;SDS011;4663;49.120;9.730;2023-05-10T12:30:28;20.13;;;19.23;;
9254;SDS011;4663;49.120;9.730;2023-05-10T12:33:07;22.65;;;21.42;;
9254;SDS011;4663;49.120;9.730;2023-05-10T12:35:43;21.13;;;20.13;;
9254;SDS011;4663;49.120;9.730;2023-05-10T12:41:10;31.75;;;30.00;;
9254;SDS011;4663;49.120;9.730;2023-05-10T12:43:36;32.67;;;31.17;;
9254;SDS011;4663;49.120;9.730;2023-05-10T12:46:09;39.42;;;37.45;;
9254;SDS011;4663;49.120;9.730;2023-05-10T12:48:36;43.10;;;40.97;;
9254;SDS011;4663;49.120;9.730;2023-05-10T12:51:03;45.17;;;42.83;;
9254;SDS011;4663;49.120;9.730;2023-05-10T12:53:29;41.63;;;39.65;;
9254;SDS011;4663;49.120;9.730;2023-05-10T12:55:55;41.30;;;39.30;;
9254;SDS011;4663;49.120;9.730;2023-05-10T12:58:21;44.03;;;41.88;;
9254;SDS011;4663;49.120;9.730;2023-05-10T13:00:46;39.42;;;37.40;;
9254;SDS011;4663;49.120;9.730;2023-05-10T13:03:12;32.40;;;30.90;;
9254;SDS011;4663;49.120;9.730;2023-05-10T13:05:37;35.35;;;33.60;;
9254;SDS011;4663;49.120;9.730;2023-05-10T13:08:03;32.05;;;30.60;;
9254;SDS011;4663;49.120;9.730;2023-05-10T13:10:31;36.15;;;34.45;;
9254;SDS011;4663;49.120;9.730;2023-05-10T13:13:00;38.08;;;36.17;;
9254;SDS011;4663;49.120;9.730;2023-05-10T13:15:25;38.95;;;36.92;;
9254;SDS011;4663;49.120;9.730;2023-05-10T13:17:51;41.00;;;38.88;;
9254;SDS011;4663;49.120;9.730;2023-05-10T13:20:17;39.58;;;37.70;;
9254;SDS011;4663;49.120;9.730;2023-05-10T13:22:43;44.00;;;41.95;;
9254;SDS011;4663;49.120;9.730;2023-05-10T13:25:09;43.05;;;41.00;;
9254;SDS011;4663;49.120;9.730;2023-05-10T13:27:35;44.50;;;42.45;;
9254;SDS011;4663;49.120;9.730;2023-05-10T13:30:01;46.33;;;44.15;;
9254;SDS011;4663;49.120;9.730;2023-05-10T13:32:28;52.67;;;49.80;;
9254;SDS011;4663;49.120;9.730;2023-05-10T13:34:54;45.85;;;43.70;;
9254;SDS011;4663;49.120;9.730;2023-05-10T13:37:20;44.30;;;42.03;;
9254;SDS011;4663;49.120;9.730;2023-05-10T13:39:45;43.92;;;41.85;;
9254;SDS011;4663;49.120;9.730;2023-05-10T13:42:10;44.03;;;42.03;;
9254;SDS011;4663;49.120;9.730;2023-05-10T13:44:36;43.20;;;41.15;;
9254;SDS011;4663;49.120;9.730;2023-05-10T13:47:03;48.38;;;46.13;;
9254;SDS011;4663;49.120;9.730;2023-05-10T13:49:29;49.38;;;47.10;;
9254;SDS011;4663;49.120;9.730;2023-05-10T13:51:54;49.80;;;47.35;;
9254;SDS011;4663;49.120;9.730;2023-05-10T13:54:20;47.90;;;45.50;;
9254;SDS011;4663;49.120;9.730;2023-05-10T13:56:47;50.55;;;48.15;;
9254;SDS011;4663;49.120;9.730;2023-05-10T13:59:13;40.28;;;38.33;;
9254;SDS011;4663;49.120;9.730;2023-05-10T14:01:39;34.70;;;33.03;;
9254;SDS011;4663;49.120;9.730;2023-05-10T14:04:10;27.58;;;26.23;;
9254;SDS011;4663;49.120;9.730;2023-05-10T14:06:36;21.70;;;20.58;;
9254;SDS011;4663;49.120;9.730;2023-05-10T14:09:02;21.00;;;20.00;;
9254;SDS011;4663;49.120;9.730;2023-05-10T14:11:28;22.10;;;20.88;;
9254;SDS011;4663;49.120;9.730;2023-05-10T14:13:53;22.80;;;21.50;;
9254;SDS011;4663;49.120;9.730;2023-05-10T14:16:19;27.00;;;25.42;;
9254;SDS011;4663;49.120;9.730;2023-05-10T14:18:45;31.45;;;29.85;;
9254;SDS011;4663;49.120;9.730;2023-05-10T14:21:11;40.08;;;38.08;;
9254;SDS011;4663;49.120;9.730;2023-05-10T14:23:36;41.78;;;39.78;;
9254;SDS011;4663;49.120;9.730;2023-05-10T14:26:01;47.08;;;44.65;;
9254;SDS011;4663;49.120;9.730;2023-05-10T14:28:27;45.88;;;43.63;;
9254;SDS011;4663;49.120;9.730;2023-05-10T14:30:53;42.90;;;40.88;;
9254;SDS011;4663;49.120;9.730;2023-05-10T14:33:18;46.13;;;43.83;;
9254;SDS011;4663;49.120;9.730;2023-05-10T14:35:44;41.70;;;39.55;;
9254;SDS011;4663;49.120;9.730;2023-05-10T14:38:10;44.08;;;41.83;;
9254;SDS011;4663;49.120;9.730;2023-05-10T14:40:35;42.35;;;39.90;;
9254;SDS011;4663;49.120;9.730;2023-05-10T14:43:01;45.33;;;42.80;;
9254;SDS011;4663;49.120;9.730;2023-05-10T14:45:26;52.25;;;49.53;;
9254;SDS011;4663;49.120;9.730;2023-05-10T14:47:52;40.78;;;38.75;;
9254;SDS011;4663;49.120;9.730;2023-05-10T14:50:17;41.80;;;38.95;;
9254;SDS011;4663;49.120;9.730;2023-05-10T14:52:43;41.17;;;39.03;;
9254;SDS011;4663;49.120;9.730;2023-05-10T14:55:09;43.63;;;41.47;;
9254;SDS011;4663;49.120;9.730;2023-05-10T14:57:34;49.08;;;46.67;;
9254;SDS011;4663;49.120;9.730;2023-05-10T15:00:00;40.78;;;38.80;;
9254;SDS011;4663;49.120;9.730;2023-05-10T15:02:25;39.55;;;37.67;;
9254;SDS011;4663;49.120;9.730;2023-05-10T15:04:51;39.97;;;37.90;;
9254;SDS011;4663;49.120;9.730;2023-05-10T15:07:16;33.33;;;31.70;;
9254;SDS011;4663;49.120;9.730;2023-05-10T15:09:43;37.90;;;35.63;;
9254;SDS011;4663;49.120;9.730;2023-05-10T15:12:11;35.88;;;34.10;;
9254;SDS011;4663;49.120;9.730;2023-05-10T15:14:37;36.22;;;34.50;;
9254;SDS011;4663;49.120;9.730;2023-05-10T15:17:02;35.83;;;34.00;;
9254;SDS011;4663;49.120;9.730;2023-05-10T15:19:28;36.50;;;34.63;;
9254;SDS011;4663;49.120;9.730;2023-05-10T15:21:54;35.33;;;33.50;;
9254;SDS011;4663;49.120;9.730;2023-05-10T15:24:20;33.65;;;32.08;;
9254;SDS011;4663;49.120;9.730;2023-05-10T15:26:46;33.35;;;31.60;;
9254;SDS011;4663;49.120;9.730;2023-05-10T15:29:12;30.83;;;29.30;;
9254;SDS011;4663;49.120;9.730;2023-05-10T15:31:37;33.65;;;32.00;;
9254;SDS011;4663;49.120;9.730;2023-05-10T15:34:04;30.80;;;29.20;;
9254;SDS011;4663;49.120;9.730;2023-05-10T15:36:31;35.40;;;33.60;;